Terminal Aerodrome Forecast
Issued by NWS

Home | Current Version | Previous Version | Text Only | Print | Product List | Glossary On
Versions: 1 2 3 4 5 6 7 8 9 10 11 12 13
215
FTUS44 KBMX 250520
TAFEET
TAF
KEET 250520Z 2506/2606 00000KT P6SM BKN200
     FM251100 00000KT 6SM BR SCT100 BKN200
     FM251400 08006KT P6SM SCT050 SCT120
     FM260000 00000KT P6SM BKN200=

USA.gov is the U.S. government's official web portal to all federal, state and local government web resources and services.